sensor_id;sensor_type;location;lat;lon;timestamp;pressure;altitude;pressure_sealevel;temperature;humidity
54924;BME280;40825;52.270;20.984;2022-09-29T00:00:14;98998.59;;;8.44;93.09
54924;BME280;40825;52.270;20.984;2022-09-29T00:00:56;99000.06;;;8.44;94.06
54924;BME280;40825;52.270;20.984;2022-09-29T00:01:25;99001.75;;;8.43;93.79
54924;BME280;40825;52.270;20.984;2022-09-29T00:01:48;99001.15;;;8.43;93.55
54924;BME280;40825;52.270;20.984;2022-09-29T00:02:09;98997.45;;;8.42;93.44
54924;BME280;40825;52.270;20.984;2022-09-29T00:02:31;99003.14;;;8.42;93.79
54924;BME280;40825;52.270;20.984;2022-09-29T00:02:52;98999.55;;;8.42;95.06
54924;BME280;40825;52.270;20.984;2022-09-29T00:03:14;98998.48;;;8.42;94.78
54924;BME280;40825;52.270;20.984;2022-09-29T00:03:36;99004.00;;;8.41;94.12
54924;BME280;40825;52.270;20.984;2022-09-29T00:03:57;98999.67;;;8.40;93.65
54924;BME280;40825;52.270;20.984;2022-09-29T00:04:19;98999.73;;;8.40;93.87
54924;BME280;40825;52.270;20.984;2022-09-29T00:04:41;98999.60;;;8.40;93.15
54924;BME280;40825;52.270;20.984;2022-09-29T00:05:03;99000.34;;;8.39;92.89
54924;BME280;40825;52.270;20.984;2022-09-29T00:05:24;98999.53;;;8.39;92.62
54924;BME280;40825;52.270;20.984;2022-09-29T00:05:48;98999.68;;;8.39;92.96
54924;BME280;40825;52.270;20.984;2022-09-29T00:06:12;99002.64;;;8.38;92.76
54924;BME280;40825;52.270;20.984;2022-09-29T00:06:34;99002.16;;;8.38;94.04
54924;BME280;40825;52.270;20.984;2022-09-29T00:06:56;99004.82;;;8.38;94.57
54924;BME280;40825;52.270;20.984;2022-09-29T00:07:17;99001.66;;;8.37;94.07
54924;BME280;40825;52.270;20.984;2022-09-29T00:07:39;99001.82;;;8.38;93.47
54924;BME280;40825;52.270;20.984;2022-09-29T00:08:00;98998.51;;;8.37;93.01
54924;BME280;40825;52.270;20.984;2022-09-29T00:08:23;99004.27;;;8.38;94.06
54924;BME280;40825;52.270;20.984;2022-09-29T00:08:45;99000.44;;;8.37;93.77
54924;BME280;40825;52.270;20.984;2022-09-29T00:09:07;99001.58;;;8.38;93.41
54924;BME280;40825;52.270;20.984;2022-09-29T00:09:28;99004.23;;;8.38;93.15
54924;BME280;40825;52.270;20.984;2022-09-29T00:09:51;99001.38;;;8.38;94.14
54924;BME280;40825;52.270;20.984;2022-09-29T00:10:12;99000.63;;;8.38;94.89
54924;BME280;40825;52.270;20.984;2022-09-29T00:10:34;99000.27;;;8.39;93.96
54924;BME280;40825;52.270;20.984;2022-09-29T00:11:00;99002.11;;;8.38;94.09
54924;BME280;40825;52.270;20.984;2022-09-29T00:11:21;99003.05;;;8.38;93.55
54924;BME280;40825;52.270;20.984;2022-09-29T00:11:43;99002.35;;;8.37;93.35
54924;BME280;40825;52.270;20.984;2022-09-29T00:12:04;98998.30;;;8.37;94.24
54924;BME280;40825;52.270;20.984;2022-09-29T00:12:26;98999.90;;;8.37;94.87
54924;BME280;40825;52.270;20.984;2022-09-29T00:12:48;98998.01;;;8.37;95.23
54924;BME280;40825;52.270;20.984;2022-09-29T00:13:09;98995.88;;;8.37;94.37
54924;BME280;40825;52.270;20.984;2022-09-29T00:13:31;98997.64;;;8.37;93.86
54924;BME280;40825;52.270;20.984;2022-09-29T00:13:53;98995.73;;;8.37;93.61
54924;BME280;40825;52.270;20.984;2022-09-29T00:14:14;98995.77;;;8.37;93.46
54924;BME280;40825;52.270;20.984;2022-09-29T00:14:36;98997.15;;;8.37;94.50
54924;BME280;40825;52.270;20.984;2022-09-29T00:14:57;98997.85;;;8.37;94.95
54924;BME280;40825;52.270;20.984;2022-09-29T00:15:19;98992.91;;;8.37;94.33
54924;BME280;40825;52.270;20.984;2022-09-29T00:15:40;98992.00;;;8.37;95.02
54924;BME280;40825;52.270;20.984;2022-09-29T00:16:04;98995.19;;;8.37;95.13
54924;BME280;40825;52.270;20.984;2022-09-29T00:16:26;98992.25;;;8.36;95.25
54924;BME280;40825;52.270;20.984;2022-09-29T00:16:48;98996.34;;;8.36;95.26
54924;BME280;40825;52.270;20.984;2022-09-29T00:17:09;98990.69;;;8.36;95.45
54924;BME280;40825;52.270;20.984;2022-09-29T00:17:31;98995.27;;;8.36;95.28
54924;BME280;40825;52.270;20.984;2022-09-29T00:17:52;98997.15;;;8.37;95.51
54924;BME280;40825;52.270;20.984;2022-09-29T00:18:14;98994.16;;;8.37;96.05
54924;BME280;40825;52.270;20.984;2022-09-29T00:18:35;98998.14;;;8.36;95.46
54924;BME280;40825;52.270;20.984;2022-09-29T00:18:57;98997.81;;;8.36;94.79
54924;BME280;40825;52.270;20.984;2022-09-29T00:19:20;99000.15;;;8.36;94.73
54924;BME280;40825;52.270;20.984;2022-09-29T00:19:45;98997.12;;;8.36;94.33
54924;BME280;40825;52.270;20.984;2022-09-29T00:20:07;98998.55;;;8.36;93.91
54924;BME280;40825;52.270;20.984;2022-09-29T00:20:29;99000.55;;;8.36;93.41
54924;BME280;40825;52.270;20.984;2022-09-29T00:21:01;98995.69;;;8.36;95.38
54924;BME280;40825;52.270;20.984;2022-09-29T00:21:23;98995.81;;;8.36;95.72
54924;BME280;40825;52.270;20.984;2022-09-29T00:21:45;98995.92;;;8.37;95.38
54924;BME280;40825;52.270;20.984;2022-09-29T00:22:06;98991.30;;;8.37;96.10
54924;BME280;40825;52.270;20.984;2022-09-29T00:22:28;98998.30;;;8.36;96.78
54924;BME280;40825;52.270;20.984;2022-09-29T00:22:52;98991.67;;;8.35;96.92
54924;BME280;40825;52.270;20.984;2022-09-29T00:23:14;98995.61;;;8.35;96.38
54924;BME280;40825;52.270;20.984;2022-09-29T00:23:36;98994.02;;;8.35;96.26
54924;BME280;40825;52.270;20.984;2022-09-29T00:23:59;98993.94;;;8.34;95.83
54924;BME280;40825;52.270;20.984;2022-09-29T00:24:21;98993.32;;;8.34;95.22
54924;BME280;40825;52.270;20.984;2022-09-29T00:24:42;98995.08;;;8.34;95.59
54924;BME280;40825;52.270;20.984;2022-09-29T00:25:04;98993.66;;;8.33;95.71
54924;BME280;40825;52.270;20.984;2022-09-29T00:25:27;98992.59;;;8.32;95.14
54924;BME280;40825;52.270;20.984;2022-09-29T00:25:48;98997.79;;;8.32;95.26
54924;BME280;40825;52.270;20.984;2022-09-29T00:26:22;98993.27;;;8.32;95.35
54924;BME280;40825;52.270;20.984;2022-09-29T00:26:44;98995.27;;;8.31;96.36
54924;BME280;40825;52.270;20.984;2022-09-29T00:27:07;98995.46;;;8.31;95.95
54924;BME280;40825;52.270;20.984;2022-09-29T00:27:28;98995.02;;;8.30;96.51
54924;BME280;40825;52.270;20.984;2022-09-29T00:27:50;98993.13;;;8.30;96.18
54924;BME280;40825;52.270;20.984;2022-09-29T00:28:11;98993.54;;;8.30;95.41
54924;BME280;40825;52.270;20.984;2022-09-29T00:28:33;98992.35;;;8.29;95.53
54924;BME280;40825;52.270;20.984;2022-09-29T00:28:56;98994.64;;;8.29;95.46
54924;BME280;40825;52.270;20.984;2022-09-29T00:29:18;98989.90;;;8.29;95.54
54924;BME280;40825;52.270;20.984;2022-09-29T00:29:40;98993.80;;;8.29;96.04
54924;BME280;40825;52.270;20.984;2022-09-29T00:30:01;98991.01;;;8.29;95.52
54924;BME280;40825;52.270;20.984;2022-09-29T00:30:23;98997.34;;;8.29;95.46
54924;BME280;40825;52.270;20.984;2022-09-29T00:30:44;98993.71;;;8.28;95.40
54924;BME280;40825;52.270;20.984;2022-09-29T00:31:06;98994.94;;;8.29;95.77
54924;BME280;40825;52.270;20.984;2022-09-29T00:31:29;98997.80;;;8.28;96.35
54924;BME280;40825;52.270;20.984;2022-09-29T00:31:53;98995.40;;;8.28;95.41
54924;BME280;40825;52.270;20.984;2022-09-29T00:32:14;98996.25;;;8.28;95.03
54924;BME280;40825;52.270;20.984;2022-09-29T00:32:36;98997.27;;;8.28;94.84
54924;BME280;40825;52.270;20.984;2022-09-29T00:32:57;98996.36;;;8.29;94.85
54924;BME280;40825;52.270;20.984;2022-09-29T00:33:19;98997.27;;;8.28;95.66
54924;BME280;40825;52.270;20.984;2022-09-29T00:33:43;98996.58;;;8.28;96.16
54924;BME280;40825;52.270;20.984;2022-09-29T00:34:05;98994.83;;;8.28;95.31
54924;BME280;40825;52.270;20.984;2022-09-29T00:34:27;98993.39;;;8.28;94.94
54924;BME280;40825;52.270;20.984;2022-09-29T00:34:48;98994.86;;;8.28;95.25
54924;BME280;40825;52.270;20.984;2022-09-29T00:35:11;98998.75;;;8.28;95.00
54924;BME280;40825;52.270;20.984;2022-09-29T00:35:32;98994.95;;;8.27;96.39
54924;BME280;40825;52.270;20.984;2022-09-29T00:35:55;98997.48;;;8.26;96.45
54924;BME280;40825;52.270;20.984;2022-09-29T00:36:19;98997.58;;;8.26;95.56
54924;BME280;40825;52.270;20.984;2022-09-29T00:36:40;98995.81;;;8.25;95.07
54924;BME280;40825;52.270;20.984;2022-09-29T00:37:02;98992.46;;;8.26;95.08
54924;BME280;40825;52.270;20.984;2022-09-29T00:37:24;98993.27;;;8.25;94.79
54924;BME280;40825;52.270;20.984;2022-09-29T00:37:45;98993.57;;;8.25;94.64
54924;BME280;40825;52.270;20.984;2022-09-29T00:38:09;98994.83;;;8.25;95.10
54924;BME280;40825;52.270;20.984;2022-09-29T00:38:31;98997.16;;;8.25;95.19
54924;BME280;40825;52.270;20.984;2022-09-29T00:38:53;98993.08;;;8.24;95.79
54924;BME280;40825;52.270;20.984;2022-09-29T00:39:14;98994.88;;;8.23;95.20
54924;BME280;40825;52.270;20.984;2022-09-29T00:39:36;98993.70;;;8.23;94.91
54924;BME280;40825;52.270;20.984;2022-09-29T00:39:57;98997.14;;;8.22;94.74
54924;BME280;40825;52.270;20.984;2022-09-29T00:40:19;98990.80;;;8.22;94.64
54924;BME280;40825;52.270;20.984;2022-09-29T00:40:41;98994.36;;;8.22;94.96
54924;BME280;40825;52.270;20.984;2022-09-29T00:41:02;98997.34;;;8.22;94.43
54924;BME280;40825;52.270;20.984;2022-09-29T00:41:26;98998.04;;;8.22;94.14
54924;BME280;40825;52.270;20.984;2022-09-29T00:41:48;98997.67;;;8.22;94.16
54924;BME280;40825;52.270;20.984;2022-09-29T00:42:10;98997.26;;;8.23;93.83
54924;BME280;40825;52.270;20.984;2022-09-29T00:42:32;99000.20;;;8.23;93.94
54924;BME280;40825;52.270;20.984;2022-09-29T00:42:54;99002.33;;;8.23;93.75
54924;BME280;40825;52.270;20.984;2022-09-29T00:43:19;99002.81;;;8.24;93.68
54924;BME280;40825;52.270;20.984;2022-09-29T00:43:49;99001.91;;;8.24;93.95
54924;BME280;40825;52.270;20.984;2022-09-29T00:45:23;98998.88;;;8.24;93.85
54924;BME280;40825;52.270;20.984;2022-09-29T00:45:44;99000.36;;;8.23;94.30
54924;BME280;40825;52.270;20.984;2022-09-29T00:46:06;98998.08;;;8.23;94.27
54924;BME280;40825;52.270;20.984;2022-09-29T00:46:55;98998.23;;;8.22;95.33
54924;BME280;40825;52.270;20.984;2022-09-29T00:47:18;98997.10;;;8.21;95.46
54924;BME280;40825;52.270;20.984;2022-09-29T00:47:40;98994.59;;;8.21;94.79
54924;BME280;40825;52.270;20.984;2022-09-29T00:48:07;98994.39;;;8.22;94.59
54924;BME280;40825;52.270;20.984;2022-09-29T00:48:31;98995.41;;;8.22;94.35
54924;BME280;40825;52.270;20.984;2022-09-29T00:48:54;98997.51;;;8.22;94.88
54924;BME280;40825;52.270;20.984;2022-09-29T00:49:18;98997.91;;;8.22;94.82
54924;BME280;40825;52.270;20.984;2022-09-29T00:49:42;99000.33;;;8.22;94.36
54924;BME280;40825;52.270;20.984;2022-09-29T00:50:43;99003.76;;;8.21;94.77
54924;BME280;40825;52.270;20.984;2022-09-29T00:51:06;99007.84;;;8.22;94.18
54924;BME280;40825;52.270;20.984;2022-09-29T00:51:28;99006.79;;;8.22;94.59
54924;BME280;40825;52.270;20.984;2022-09-29T00:51:52;99006.80;;;8.22;94.45
54924;BME280;40825;52.270;20.984;2022-09-29T00:52:46;99003.67;;;8.21;94.04
54924;BME280;40825;52.270;20.984;2022-09-29T00:53:09;99005.23;;;8.21;93.96
54924;BME280;40825;52.270;20.984;2022-09-29T00:53:32;99002.94;;;8.21;93.68
54924;BME280;40825;52.270;20.984;2022-09-29T00:53:54;99005.39;;;8.22;93.71
54924;BME280;40825;52.270;20.984;2022-09-29T00:54:17;99002.05;;;8.21;93.68
54924;BME280;40825;52.270;20.984;2022-09-29T00:54:41;99000.91;;;8.21;93.64
54924;BME280;40825;52.270;20.984;2022-09-29T00:55:25;98998.29;;;8.22;94.25
54924;BME280;40825;52.270;20.984;2022-09-29T00:56:09;98998.20;;;8.23;94.71
54924;BME280;40825;52.270;20.984;2022-09-29T00:56:33;98999.47;;;8.22;94.46
54924;BME280;40825;52.270;20.984;2022-09-29T00:56:55;99001.39;;;8.22;94.17
54924;BME280;40825;52.270;20.984;2022-09-29T00:57:18;99002.41;;;8.23;93.97
54924;BME280;40825;52.270;20.984;2022-09-29T00:57:45;99003.27;;;8.23;94.01
54924;BME280;40825;52.270;20.984;2022-09-29T00:58:12;99003.19;;;8.23;94.40
54924;BME280;40825;52.270;20.984;2022-09-29T00:59:02;99008.91;;;8.23;94.36
54924;BME280;40825;52.270;20.984;2022-09-29T00:59:26;99011.94;;;8.23;94.13
54924;BME280;40825;52.270;20.984;2022-09-29T00:59:54;99010.80;;;8.23;93.88
54924;BME280;40825;52.270;20.984;2022-09-29T01:00:18;99010.79;;;8.24;93.88
54924;BME280;40825;52.270;20.984;2022-09-29T01:00:40;99013.56;;;8.24;94.34
54924;BME280;40825;52.270;20.984;2022-09-29T01:01:04;99012.02;;;8.24;94.02
54924;BME280;40825;52.270;20.984;2022-09-29T01:01:27;99015.20;;;8.24;93.99
54924;BME280;40825;52.270;20.984;2022-09-29T01:01:50;99014.95;;;8.24;93.85
54924;BME280;40825;52.270;20.984;2022-09-29T01:02:13;99011.27;;;8.24;93.66
54924;BME280;40825;52.270;20.984;2022-09-29T01:02:37;99012.46;;;8.24;93.97
54924;BME280;40825;52.270;20.984;2022-09-29T01:03:00;99011.31;;;8.24;94.98
54924;BME280;40825;52.270;20.984;2022-09-29T01:03:26;99009.56;;;8.24;94.75
54924;BME280;40825;52.270;20.984;2022-09-29T01:03:49;99013.16;;;8.23;94.26
54924;BME280;40825;52.270;20.984;2022-09-29T01:04:14;99014.88;;;8.23;93.89
54924;BME280;40825;52.270;20.984;2022-09-29T01:04:36;99013.20;;;8.23;93.76
54924;BME280;40825;52.270;20.984;2022-09-29T01:04:58;99014.73;;;8.22;94.15
54924;BME280;40825;52.270;20.984;2022-09-29T01:05:23;99015.13;;;8.22;94.37
54924;BME280;40825;52.270;20.984;2022-09-29T01:05:48;99018.08;;;8.22;93.95
54924;BME280;40825;52.270;20.984;2022-09-29T01:06:22;99018.08;;;8.22;93.93
54924;BME280;40825;52.270;20.984;2022-09-29T01:06:48;99016.19;;;8.23;93.85
54924;BME280;40825;52.270;20.984;2022-09-29T01:07:10;99017.70;;;8.24;93.67
54924;BME280;40825;52.270;20.984;2022-09-29T01:07:32;99017.41;;;8.24;93.55
54924;BME280;40825;52.270;20.984;2022-09-29T01:07:54;99017.65;;;8.25;93.52
54924;BME280;40825;52.270;20.984;2022-09-29T01:08:23;99016.63;;;8.26;93.53
54924;BME280;40825;52.270;20.984;2022-09-29T01:08:59;99013.17;;;8.29;93.41
54924;BME280;40825;52.270;20.984;2022-09-29T01:09:29;99015.84;;;8.30;93.34
54924;BME280;40825;52.270;20.984;2022-09-29T01:09:53;99013.96;;;8.31;93.66
54924;BME280;40825;52.270;20.984;2022-09-29T01:10:16;99016.77;;;8.31;93.55
54924;BME280;40825;52.270;20.984;2022-09-29T01:10:39;99015.10;;;8.31;93.46
54924;BME280;40825;52.270;20.984;2022-09-29T01:11:01;99016.25;;;8.31;93.40
54924;BME280;40825;52.270;20.984;2022-09-29T01:11:24;99015.10;;;8.30;93.55
54924;BME280;40825;52.270;20.984;2022-09-29T01:11:46;99013.90;;;8.30;93.69
54924;BME280;40825;52.270;20.984;2022-09-29T01:12:08;99017.99;;;8.30;93.44
54924;BME280;40825;52.270;20.984;2022-09-29T01:12:30;99015.96;;;8.29;93.32
54924;BME280;40825;52.270;20.984;2022-09-29T01:12:51;99017.27;;;8.28;93.24
54924;BME280;40825;52.270;20.984;2022-09-29T01:13:13;99017.68;;;8.28;93.46
54924;BME280;40825;52.270;20.984;2022-09-29T01:13:35;99016.58;;;8.28;93.46
54924;BME280;40825;52.270;20.984;2022-09-29T01:13:59;99015.67;;;8.28;93.32
54924;BME280;40825;52.270;20.984;2022-09-29T01:14:24;99012.57;;;8.28;93.97
54924;BME280;40825;52.270;20.984;2022-09-29T01:14:46;99009.59;;;8.27;93.95
54924;BME280;40825;52.270;20.984;2022-09-29T01:15:08;99013.96;;;8.28;93.67
54924;BME280;40825;52.270;20.984;2022-09-29T01:15:29;99016.83;;;8.28;93.48
54924;BME280;40825;52.270;20.984;2022-09-29T01:15:51;99013.19;;;8.27;93.54
54924;BME280;40825;52.270;20.984;2022-09-29T01:16:13;99014.95;;;8.27;93.72
54924;BME280;40825;52.270;20.984;2022-09-29T01:16:35;99010.16;;;8.27;93.66
54924;BME280;40825;52.270;20.984;2022-09-29T01:16:57;99011.85;;;8.26;93.66
54924;BME280;40825;52.270;20.984;2022-09-29T01:17:20;99013.08;;;8.26;93.37
54924;BME280;40825;52.270;20.984;2022-09-29T01:17:42;99014.02;;;8.26;93.17
54924;BME280;40825;52.270;20.984;2022-09-29T01:18:04;99015.53;;;8.25;93.24
54924;BME280;40825;52.270;20.984;2022-09-29T01:18:27;99016.27;;;8.25;93.32
54924;BME280;40825;52.270;20.984;2022-09-29T01:18:48;99013.72;;;8.24;93.27
54924;BME280;40825;52.270;20.984;2022-09-29T01:19:18;99013.89;;;8.24;93.85
54924;BME280;40825;52.270;20.984;2022-09-29T01:20:12;99014.02;;;8.23;94.11
54924;BME280;40825;52.270;20.984;2022-09-29T01:20:38;99016.20;;;8.23;93.94
54924;BME280;40825;52.270;20.984;2022-09-29T01:21:51;99018.77;;;8.22;94.15
54924;BME280;40825;52.270;20.984;2022-09-29T01:27:14;99030.24;;;8.18;94.53
54924;BME280;40825;52.270;20.984;2022-09-29T01:29:01;99026.85;;;8.15;94.23
54924;BME280;40825;52.270;20.984;2022-09-29T01:30:19;99028.56;;;8.16;94.07
54924;BME280;40825;52.270;20.984;2022-09-29T01:33:06;99026.94;;;8.12;94.60
54924;BME280;40825;52.270;20.984;2022-09-29T01:34:05;99025.75;;;8.11;94.13
54924;BME280;40825;52.270;20.984;2022-09-29T01:34:47;99030.00;;;8.11;93.98
54924;BME280;40825;52.270;20.984;2022-09-29T01:35:21;99032.91;;;8.11;94.31
54924;BME280;40825;52.270;20.984;2022-09-29T01:37:30;99033.29;;;8.08;94.49
54924;BME280;40825;52.270;20.984;2022-09-29T01:38:07;99035.75;;;8.07;94.61
54924;BME280;40825;52.270;20.984;2022-09-29T01:38:38;99035.75;;;8.06;95.68
54924;BME280;40825;52.270;20.984;2022-09-29T01:40:09;99031.48;;;8.03;95.51
54924;BME280;40825;52.270;20.984;2022-09-29T01:40:37;99035.63;;;8.03;95.20
54924;BME280;40825;52.270;20.984;2022-09-29T01:41:20;99034.98;;;8.02;95.50
54924;BME280;40825;52.270;20.984;2022-09-29T01:41:50;99034.20;;;8.02;96.08
54924;BME280;40825;52.270;20.984;2022-09-29T01:42:25;99030.69;;;8.01;95.72
54924;BME280;40825;52.270;20.984;2022-09-29T01:43:35;99032.73;;;8.01;94.88
54924;BME280;40825;52.270;20.984;2022-09-29T01:43:37;99032.20;;;8.00;95.90
54924;BME280;40825;52.270;20.984;2022-09-29T01:44:03;99031.63;;;8.01;94.64
54924;BME280;40825;52.270;20.984;2022-09-29T01:44:28;99031.80;;;8.01;94.47
54924;BME280;40825;52.270;20.984;2022-09-29T01:44:54;99036.02;;;8.01;94.50
54924;BME280;40825;52.270;20.984;2022-09-29T01:45:22;99031.13;;;8.00;94.28
54924;BME280;40825;52.270;20.984;2022-09-29T01:45:48;99033.06;;;8.01;94.94
54924;BME280;40825;52.270;20.984;2022-09-29T01:46:23;99034.77;;;8.00;94.54
54924;BME280;40825;52.270;20.984;2022-09-29T01:46:51;99036.65;;;8.00;95.27
54924;BME280;40825;52.270;20.984;2022-09-29T01:47:32;99039.02;;;8.00;94.65
54924;BME280;40825;52.270;20.984;2022-09-29T01:47:57;99042.43;;;7.99;94.81
54924;BME280;40825;52.270;20.984;2022-09-29T01:48:22;99041.81;;;7.98;95.08
54924;BME280;40825;52.270;20.984;2022-09-29T01:48:46;99044.98;;;7.97;94.82
54924;BME280;40825;52.270;20.984;2022-09-29T01:49:08;99047.46;;;7.97;94.90
54924;BME280;40825;52.270;20.984;2022-09-29T01:49:32;99043.05;;;7.97;94.65
54924;BME280;40825;52.270;20.984;2022-09-29T01:50:00;99046.67;;;7.96;94.49
54924;BME280;40825;52.270;20.984;2022-09-29T01:50:44;99048.97;;;7.95;95.33
54924;BME280;40825;52.270;20.984;2022-09-29T01:51:08;99048.69;;;7.95;94.79
54924;BME280;40825;52.270;20.984;2022-09-29T01:51:40;99049.38;;;7.95;94.69
54924;BME280;40825;52.270;20.984;2022-09-29T01:52:17;99047.14;;;7.95;94.73
54924;BME280;40825;52.270;20.984;2022-09-29T01:52:41;99048.36;;;7.94;94.76
54924;BME280;40825;52.270;20.984;2022-09-29T01:53:08;99048.65;;;7.94;94.97
54924;BME280;40825;52.270;20.984;2022-09-29T01:53:39;99046.56;;;7.93;95.08
54924;BME280;40825;52.270;20.984;2022-09-29T01:54:04;99050.11;;;7.93;95.16
54924;BME280;40825;52.270;20.984;2022-09-29T01:55:10;99046.77;;;7.93;95.27
54924;BME280;40825;52.270;20.984;2022-09-29T01:55:32;99045.17;;;7.93;95.23
54924;BME280;40825;52.270;20.984;2022-09-29T01:55:57;99048.20;;;7.93;95.82
54924;BME280;40825;52.270;20.984;2022-09-29T01:56:24;99048.20;;;7.93;95.22
54924;BME280;40825;52.270;20.984;2022-09-29T01:57:07;99044.52;;;7.93;95.14
54924;BME280;40825;52.270;20.984;2022-09-29T01:57:41;99045.09;;;7.91;95.86
54924;BME280;40825;52.270;20.984;2022-09-29T01:58:04;99042.85;;;7.91;95.47
54924;BME280;40825;52.270;20.984;2022-09-29T01:58:36;99041.38;;;7.90;95.49
54924;BME280;40825;52.270;20.984;2022-09-29T02:00:03;99043.23;;;7.89;95.65
54924;BME280;40825;52.270;20.984;2022-09-29T02:00:31;99040.95;;;7.89;95.03
54924;BME280;40825;52.270;20.984;2022-09-29T02:00:56;99038.48;;;7.89;94.85
54924;BME280;40825;52.270;20.984;2022-09-29T02:01:20;99040.64;;;7.89;94.73
54924;BME280;40825;52.270;20.984;2022-09-29T02:01:43;99039.66;;;7.88;94.55
54924;BME280;40825;52.270;20.984;2022-09-29T02:02:11;99039.70;;;7.88;94.47
54924;BME280;40825;52.270;20.984;2022-09-29T02:02:45;99040.11;;;7.87;94.72
54924;BME280;40825;52.270;20.984;2022-09-29T02:03:11;99040.58;;;7.87;94.74
54924;BME280;40825;52.270;20.984;2022-09-29T02:03:34;99041.63;;;7.87;94.52
54924;BME280;40825;52.270;20.984;2022-09-29T02:04:04;99046.20;;;7.87;94.60
54924;BME280;40825;52.270;20.984;2022-09-29T02:04:30;99044.29;;;7.87;95.38
54924;BME280;40825;52.270;20.984;2022-09-29T02:04:53;99046.09;;;7.87;95.47
54924;BME280;40825;52.270;20.984;2022-09-29T02:06:46;99049.32;;;7.86;95.22
54924;BME280;40825;52.270;20.984;2022-09-29T02:07:15;99046.66;;;7.86;95.43
54924;BME280;40825;52.270;20.984;2022-09-29T02:07:41;99045.80;;;7.86;95.20
54924;BME280;40825;52.270;20.984;2022-09-29T02:08:12;99050.27;;;7.86;95.48
54924;BME280;40825;52.270;20.984;2022-09-29T02:08:59;99044.69;;;7.85;95.91
54924;BME280;40825;52.270;20.984;2022-09-29T02:09:25;99050.83;;;7.85;95.94
54924;BME280;40825;52.270;20.984;2022-09-29T02:09:49;99050.25;;;7.84;96.43
54924;BME280;40825;52.270;20.984;2022-09-29T02:10:18;99050.30;;;7.84;95.85
54924;BME280;40825;52.270;20.984;2022-09-29T02:10:49;99048.55;;;7.84;95.92
54924;BME280;40825;52.270;20.984;2022-09-29T02:11:12;99051.92;;;7.83;95.79
54924;BME280;40825;52.270;20.984;2022-09-29T02:11:34;99051.39;;;7.83;96.20
54924;BME280;40825;52.270;20.984;2022-09-29T02:11:59;99054.10;;;7.83;96.06
54924;BME280;40825;52.270;20.984;2022-09-29T02:12:22;99051.57;;;7.82;95.93
54924;BME280;40825;52.270;20.984;2022-09-29T02:12:45;99053.45;;;7.83;95.52
54924;BME280;40825;52.270;20.984;2022-09-29T02:13:08;99051.32;;;7.83;95.29
54924;BME280;40825;52.270;20.984;2022-09-29T02:13:35;99052.91;;;7.83;95.38
54924;BME280;40825;52.270;20.984;2022-09-29T02:14:13;99052.95;;;7.83;95.30
54924;BME280;40825;52.270;20.984;2022-09-29T02:14:38;99050.91;;;7.82;95.15
54924;BME280;40825;52.270;20.984;2022-09-29T02:15:02;99053.29;;;7.83;95.06
54924;BME280;40825;52.270;20.984;2022-09-29T02:15:28;99052.38;;;7.83;94.89
54924;BME280;40825;52.270;20.984;2022-09-29T02:15:53;99050.46;;;7.83;94.67
54924;BME280;40825;52.270;20.984;2022-09-29T02:16:18;99053.56;;;7.83;94.54
54924;BME280;40825;52.270;20.984;2022-09-29T02:16:46;99053.90;;;7.83;94.54
54924;BME280;40825;52.270;20.984;2022-09-29T02:17:19;99051.60;;;7.83;94.87
54924;BME280;40825;52.270;20.984;2022-09-29T02:17:42;99052.42;;;7.83;95.36
54924;BME280;40825;52.270;20.984;2022-09-29T02:18:06;99052.35;;;7.82;95.81
54924;BME280;40825;52.270;20.984;2022-09-29T02:18:32;99053.13;;;7.81;95.75
54924;BME280;40825;52.270;20.984;2022-09-29T02:19:02;99055.62;;;7.81;96.16
54924;BME280;40825;52.270;20.984;2022-09-29T02:19:28;99052.67;;;7.81;95.57
54924;BME280;40825;52.270;20.984;2022-09-29T02:19:51;99055.08;;;7.80;95.67
54924;BME280;40825;52.270;20.984;2022-09-29T02:20:13;99057.58;;;7.80;96.12
54924;BME280;40825;52.270;20.984;2022-09-29T02:20:35;99055.33;;;7.80;96.18
54924;BME280;40825;52.270;20.984;2022-09-29T02:20:56;99057.01;;;7.79;96.92
54924;BME280;40825;52.270;20.984;2022-09-29T02:21:18;99055.82;;;7.79;96.84
54924;BME280;40825;52.270;20.984;2022-09-29T02:21:40;99055.77;;;7.79;96.49
54924;BME280;40825;52.270;20.984;2022-09-29T02:22:01;99053.48;;;7.79;95.99
54924;BME280;40825;52.270;20.984;2022-09-29T02:22:23;99052.02;;;7.79;95.58
54924;BME280;40825;52.270;20.984;2022-09-29T02:22:45;99056.32;;;7.79;95.42
54924;BME280;40825;52.270;20.984;2022-09-29T02:23:06;99055.65;;;7.80;95.22
54924;BME280;40825;52.270;20.984;2022-09-29T02:23:28;99056.18;;;7.80;95.42
54924;BME280;40825;52.270;20.984;2022-09-29T02:23:50;99058.52;;;7.80;96.09
54924;BME280;40825;52.270;20.984;2022-09-29T02:24:12;99053.24;;;7.79;96.03
54924;BME280;40825;52.270;20.984;2022-09-29T02:24:34;99052.96;;;7.79;95.70
54924;BME280;40825;52.270;20.984;2022-09-29T02:24:57;99054.80;;;7.78;95.57
54924;BME280;40825;52.270;20.984;2022-09-29T02:25:19;99054.79;;;7.78;95.80
54924;BME280;40825;52.270;20.984;2022-09-29T02:25:41;99061.91;;;7.78;95.41
54924;BME280;40825;52.270;20.984;2022-09-29T02:26:04;99058.55;;;7.78;95.27
54924;BME280;40825;52.270;20.984;2022-09-29T02:26:28;99059.14;;;7.78;95.19
54924;BME280;40825;52.270;20.984;2022-09-29T02:26:50;99062.52;;;7.77;95.86
54924;BME280;40825;52.270;20.984;2022-09-29T02:27:12;99059.54;;;7.77;95.56
54924;BME280;40825;52.270;20.984;2022-09-29T02:27:34;99062.95;;;7.77;95.96
54924;BME280;40825;52.270;20.984;2022-09-29T02:27:56;99064.04;;;7.77;95.67
54924;BME280;40825;52.270;20.984;2022-09-29T02:28:17;99063.84;;;7.77;95.42
54924;BME280;40825;52.270;20.984;2022-09-29T02:28:40;99064.53;;;7.77;95.39
54924;BME280;40825;52.270;20.984;2022-09-29T02:29:02;99061.62;;;7.76;96.27
54924;BME280;40825;52.270;20.984;2022-09-29T02:29:25;99067.67;;;7.76;96.31
54924;BME280;40825;52.270;20.984;2022-09-29T02:29:46;99063.02;;;7.76;95.71
54924;BME280;40825;52.270;20.984;2022-09-29T02:30:08;99070.33;;;7.76;95.97
54924;BME280;40825;52.270;20.984;2022-09-29T02:30:31;99068.20;;;7.76;96.04